createdAt,value
2023-01-31T00:03:44.021Z,100425.84
2023-01-31T00:08:47.238Z,100427.69
2023-01-31T00:13:51.368Z,100426.16
2023-01-31T00:18:54.096Z,100427.25
2023-01-31T00:23:57.245Z,100431.16
2023-01-31T00:29:02.983Z,100442.19
2023-01-31T00:34:05.764Z,100432.97
2023-01-31T00:39:08.777Z,100450.13
2023-01-31T00:44:12.992Z,100458.28
2023-01-31T00:49:15.831Z,100454.94
2023-01-31T00:54:18.650Z,100460.66
2023-01-31T00:59:22.922Z,100465.53
2023-01-31T01:04:25.702Z,100467.81
2023-01-31T01:09:28.465Z,100460.94
2023-01-31T01:14:33.037Z,100466.84
2023-01-31T01:19:36.058Z,100478.72
2023-01-31T01:24:42.783Z,100493.28
2023-01-31T01:29:46.909Z,100507.00
2023-01-31T01:34:49.713Z,100502.06
2023-01-31T01:39:52.911Z,100509.44
2023-01-31T01:44:57.881Z,100512.53
2023-01-31T01:50:02.139Z,100515.81
2023-01-31T01:55:07.380Z,100526.47
2023-01-31T02:00:15.384Z,100532.84
2023-01-31T02:05:19.943Z,100533.91
2023-01-31T02:10:25.379Z,100529.75
2023-01-31T02:15:29.605Z,100525.44
2023-01-31T02:21:15.116Z,100539.78
2023-01-31T02:26:36.065Z,100520.59
2023-01-31T02:32:16.483Z,100537.72
2023-01-31T02:37:24.358Z,100545.94
2023-01-31T02:42:31.355Z,100563.06
2023-01-31T02:47:45.757Z,100581.97
2023-01-31T02:52:54.112Z,100584.84
2023-01-31T02:57:58.126Z,100581.56
2023-01-31T03:03:00.926Z,100604.78
2023-01-31T03:08:06.344Z,100623.72
2023-01-31T03:13:20.669Z,100620.31
2023-01-31T03:18:24.672Z,100629.38
2023-01-31T03:23:36.176Z,100630.31
2023-01-31T03:28:42.116Z,100628.81
2023-01-31T03:33:45.978Z,100632.66
2023-01-31T03:38:52.652Z,100642.38
2023-01-31T03:43:59.385Z,100634.53
2023-01-31T03:49:02.652Z,100641.69
2023-01-31T03:54:08.363Z,100642.75
2023-01-31T03:59:13.517Z,100635.78
2023-01-31T04:04:19.075Z,100634.84
2023-01-31T04:09:23.492Z,100634.19
2023-01-31T04:14:26.467Z,100640.56
2023-01-31T04:19:29.355Z,100636.28
2023-01-31T04:24:33.484Z,100645.16
2023-01-31T04:29:36.658Z,100652.41
2023-01-31T04:34:39.489Z,100663.31
2023-01-31T04:39:43.791Z,100666.16
2023-01-31T04:44:46.862Z,100659.19
2023-01-31T04:49:49.690Z,100658.44
2023-01-31T04:54:53.885Z,100678.09
2023-01-31T04:59:56.718Z,100681.63
2023-01-31T05:04:59.697Z,100678.16
2023-01-31T05:10:03.876Z,100681.78
2023-01-31T05:15:08.248Z,100686.28
2023-01-31T05:20:12.413Z,100683.72
2023-01-31T05:25:17.006Z,100682.09
2023-01-31T05:30:19.955Z,100675.03
2023-01-31T05:35:23.242Z,100681.34
2023-01-31T05:40:27.589Z,100683.16
2023-01-31T05:45:31.207Z,100680.53
2023-01-31T05:50:34.160Z,100692.09
2023-01-31T05:55:46.337Z,100695.72
2023-01-31T06:00:49.294Z,100692.19
2023-01-31T06:05:52.068Z,100696.75
2023-01-31T06:10:56.396Z,100696.75
2023-01-31T06:15:59.471Z,100700.41
2023-01-31T06:21:02.254Z,100705.84
2023-01-31T06:26:06.555Z,100697.91
2023-01-31T06:31:09.659Z,100700.59
2023-01-31T06:36:12.697Z,100708.50
2023-01-31T06:41:16.912Z,100716.63
2023-01-31T06:46:19.775Z,100708.72
2023-01-31T06:51:22.781Z,100716.88
2023-01-31T06:56:27.013Z,100720.59
2023-01-31T07:01:30.332Z,100723.38
2023-01-31T07:06:33.224Z,100727.97
2023-01-31T07:11:38.115Z,100735.97
2023-01-31T07:16:40.945Z,100738.66
2023-01-31T07:21:44.394Z,100739.66
2023-01-31T07:26:48.858Z,100737.09
2023-01-31T07:31:51.706Z,100740.72
2023-01-31T07:36:54.486Z,100727.53
2023-01-31T07:41:58.670Z,100715.06
2023-01-31T07:47:01.575Z,100716.06
2023-01-31T07:52:04.495Z,100719.69
2023-01-31T07:57:08.994Z,100725.09
2023-01-31T08:02:30.677Z,100722.44
2023-01-31T08:07:33.523Z,100732.50
2023-01-31T08:12:37.717Z,100725.72
2023-01-31T08:17:40.503Z,100720.88
2023-01-31T08:22:43.420Z,100710.19
2023-01-31T08:27:47.791Z,100721.47
2023-01-31T08:32:50.581Z,100723.03
2023-01-31T08:38:00.900Z,100700.59
2023-01-31T08:43:11.270Z,100685.38
2023-01-31T08:48:14.955Z,100684.31
2023-01-31T08:53:17.710Z,100680.56
2023-01-31T08:58:21.906Z,100677.41
2023-01-31T09:03:24.831Z,100676.94
2023-01-31T09:08:27.707Z,100667.00
2023-01-31T09:13:32.385Z,100657.03
2023-01-31T09:18:35.433Z,100657.06
2023-01-31T09:23:41.722Z,100646.63
2023-01-31T09:28:46.465Z,100642.69
2023-01-31T09:33:49.353Z,100637.78
2023-01-31T09:38:54.954Z,100642.72
2023-01-31T09:44:00.112Z,100651.22
2023-01-31T09:49:06.033Z,100646.41
2023-01-31T09:54:14.871Z,100655.72
2023-01-31T09:59:21.230Z,100639.56
2023-01-31T10:04:31.006Z,100636.78
2023-01-31T10:09:36.325Z,100624.06
2023-01-31T10:14:42.326Z,100626.34
2023-01-31T10:19:48.548Z,100627.94
2023-01-31T10:24:54.368Z,100620.53
2023-01-31T10:29:58.457Z,100614.03
2023-01-31T10:35:03.006Z,100619.16
2023-01-31T10:40:07.338Z,100611.97
2023-01-31T10:45:15.067Z,100593.09
2023-01-31T10:50:19.201Z,100588.28
2023-01-31T10:55:36.215Z,100580.03
2023-01-31T11:00:40.427Z,100547.88
2023-01-31T11:05:47.275Z,100544.34
2023-01-31T11:10:52.082Z,100526.31
2023-01-31T11:15:56.635Z,100514.53
2023-01-31T11:20:59.533Z,100503.81
2023-01-31T11:26:02.339Z,100494.03
2023-01-31T11:31:08.682Z,100497.47
2023-01-31T11:36:12.966Z,100476.78
2023-01-31T11:41:30.263Z,100454.50
2023-01-31T11:46:35.260Z,100462.28
2023-01-31T11:51:38.030Z,100436.34
2023-01-31T11:56:40.937Z,100422.81
2023-01-31T12:01:47.606Z,100407.50
2023-01-31T12:06:58.548Z,100411.78
2023-01-31T12:12:02.704Z,100390.44
2023-01-31T12:17:07.138Z,100380.00
2023-01-31T12:22:12.940Z,100374.41
2023-01-31T12:27:22.084Z,100357.59
2023-01-31T12:32:33.273Z,100342.13
2023-01-31T12:37:40.826Z,100333.72
2023-01-31T12:42:51.113Z,100335.47
2023-01-31T12:48:20.505Z,100334.50
2023-01-31T12:53:32.911Z,100311.94
2023-01-31T12:58:41.749Z,100291.34
2023-01-31T13:04:12.006Z,100281.47
2023-01-31T13:09:18.848Z,100257.44
2023-01-31T13:14:22.708Z,100266.59
2023-01-31T13:19:27.859Z,100286.22
2023-01-31T13:24:34.021Z,100283.53
2023-01-31T13:29:39.645Z,100259.41
2023-01-31T13:34:51.216Z,100237.09
2023-01-31T13:39:55.612Z,100237.84
2023-01-31T13:45:04.729Z,100245.75
2023-01-31T13:50:12.563Z,100234.19
2023-01-31T13:55:16.762Z,100239.53
2023-01-31T14:00:32.953Z,100228.94
2023-01-31T14:05:52.697Z,100237.31
2023-01-31T14:10:55.575Z,100234.41
2023-01-31T14:15:58.832Z,100226.97
2023-01-31T14:21:32.321Z,100220.78
2023-01-31T14:26:38.609Z,100216.38
2023-01-31T14:31:41.487Z,100233.56
2023-01-31T14:36:52.619Z,100219.78
2023-01-31T14:42:15.633Z,100221.22
2023-01-31T14:47:28.034Z,100216.72
2023-01-31T14:52:41.379Z,100227.44
2023-01-31T14:57:45.352Z,100227.66
2023-01-31T15:02:50.226Z,100224.47
2023-01-31T15:08:02.459Z,100228.13
2023-01-31T15:13:49.770Z,100227.28
2023-01-31T15:19:00.728Z,100239.25
2023-01-31T15:24:05.419Z,100247.84
2023-01-31T15:29:08.240Z,100249.06
2023-01-31T15:34:15.450Z,100238.00
2023-01-31T15:39:22.886Z,100234.69
2023-01-31T15:44:26.586Z,100226.41
2023-01-31T15:49:40.098Z,100221.19
2023-01-31T15:54:54.453Z,100231.19
2023-01-31T15:59:57.313Z,100236.03
2023-01-31T16:05:00.293Z,100234.84
2023-01-31T16:10:05.115Z,100231.81
2023-01-31T16:15:08.881Z,100228.53
2023-01-31T16:20:39.818Z,100222.22
2023-01-31T16:25:43.983Z,100209.66
2023-01-31T16:30:47.119Z,100217.50
2023-01-31T16:36:12.785Z,100223.22
2023-01-31T16:41:45.159Z,100223.16
2023-01-31T16:46:48.679Z,100226.78
2023-01-31T16:51:51.619Z,100235.16
2023-01-31T16:57:09.383Z,100218.91
2023-01-31T17:02:14.959Z,100223.13
2023-01-31T17:07:19.215Z,100227.72
2023-01-31T17:12:25.682Z,100218.22
2023-01-31T17:17:29.313Z,100224.69
2023-01-31T17:22:32.251Z,100214.19
2023-01-31T17:27:36.354Z,100214.56
2023-01-31T17:32:40.148Z,100219.41
2023-01-31T17:37:42.911Z,100238.41
2023-01-31T17:42:47.186Z,100200.53
2023-01-31T17:47:50.174Z,100214.16
2023-01-31T17:52:53.158Z,100216.38
2023-01-31T17:57:57.373Z,100203.22
2023-01-31T18:03:00.386Z,100206.97
2023-01-31T18:08:05.150Z,100184.53
2023-01-31T18:13:09.423Z,100183.94
2023-01-31T18:18:12.179Z,100192.25
2023-01-31T18:23:15.027Z,100189.31
2023-01-31T18:28:19.399Z,100165.06
2023-01-31T18:33:23.954Z,100172.63
2023-01-31T18:38:27.480Z,100175.16
2023-01-31T18:43:31.878Z,100160.91
2023-01-31T18:48:37.450Z,100156.41
2023-01-31T18:53:40.875Z,100151.25
2023-01-31T18:58:45.554Z,100152.88
2023-01-31T19:03:49.971Z,100149.22
2023-01-31T19:08:52.918Z,100124.97
2023-01-31T19:13:57.558Z,100155.44
2023-01-31T19:19:00.493Z,100176.88
2023-01-31T19:24:04.052Z,100174.78
2023-01-31T19:29:09.807Z,100166.03
2023-01-31T19:34:13.149Z,100161.41
2023-01-31T19:39:15.985Z,100162.09
2023-01-31T19:44:20.660Z,100162.50
2023-01-31T19:49:23.595Z,100167.59
2023-01-31T19:54:28.006Z,100146.66
2023-01-31T19:59:33.465Z,100156.03
2023-01-31T20:04:36.425Z,100151.50
2023-01-31T20:09:39.291Z,100160.28
2023-01-31T20:14:43.587Z,100130.66
2023-01-31T20:19:46.589Z,100158.81
2023-01-31T20:24:49.647Z,100162.75
2023-01-31T20:29:54.025Z,100160.06
2023-01-31T20:34:56.978Z,100171.66
2023-01-31T20:40:00.525Z,100165.78
2023-01-31T20:45:05.980Z,100162.25
2023-01-31T20:50:10.308Z,100176.72
2023-01-31T20:55:15.620Z,100177.97
2023-01-31T21:00:22.082Z,100183.22
2023-01-31T21:05:25.073Z,100183.81
2023-01-31T21:10:28.817Z,100193.66
2023-01-31T21:15:33.120Z,100193.78
2023-01-31T21:20:36.238Z,100190.13
2023-01-31T21:25:39.183Z,100176.72
2023-01-31T21:30:44.707Z,100195.25
2023-01-31T21:35:47.651Z,100208.41
2023-01-31T21:41:10.675Z,100208.34
2023-01-31T21:46:15.518Z,100200.03
2023-01-31T21:51:19.012Z,100215.03
2023-01-31T21:56:22.711Z,100196.25
2023-01-31T22:01:27.692Z,100201.16
2023-01-31T22:06:34.936Z,100204.69
2023-01-31T22:11:38.156Z,100201.75
2023-01-31T22:16:42.560Z,100197.47
2023-01-31T22:21:45.383Z,100198.72
2023-01-31T22:26:48.205Z,100199.56
2023-01-31T22:31:54.790Z,100200.41
2023-01-31T22:36:57.665Z,100194.28
2023-01-31T22:42:00.557Z,100202.34
2023-01-31T22:47:04.792Z,100184.31
2023-01-31T22:52:07.540Z,100178.97
2023-01-31T22:57:10.343Z,100178.13
2023-01-31T23:02:14.704Z,100183.81
2023-01-31T23:07:17.505Z,100183.34
2023-01-31T23:12:20.325Z,100186.97
2023-01-31T23:17:39.469Z,100195.13
2023-01-31T23:22:42.617Z,100189.88
2023-01-31T23:27:45.395Z,100195.25
2023-01-31T23:32:49.740Z,100202.44
2023-01-31T23:37:52.532Z,100208.91
2023-01-31T23:42:55.402Z,100210.59
2023-01-31T23:47:59.487Z,100208.91
2023-01-31T23:53:02.252Z,100218.78
2023-01-31T23:58:05.115Z,100221.66
